Time;durP1;ratioP1;P1;durP2;ratioP2;P2;SDS_P1;SDS_P2;PMS_P1;PMS_P2;Temp;Humidity;BMP_temperature;BMP_pressure;BME280_temperature;BME280_humidity;BME280_pressure;Samples;Min_cycle;Max_cycle;Signal;HPM_P1;HPM_P2
2021/07/03 00:02:13;;;;;;;9.00;7.70;;;;;;;21.21;60.43;101788.69;5013338;28;20085;-71
2021/07/03 00:04:40;;;;;;;7.82;6.40;;;;;;;21.22;60.34;101795.72;4996205;28;20080;-72
2021/07/03 00:07:05;;;;;;;7.13;6.43;;;;;;;21.24;60.44;101793.97;4979465;28;20026;-72
2021/07/03 00:09:31;;;;;;;10.30;7.55;;;;;;;21.22;60.72;101790.47;4995655;28;20384;-72
2021/07/03 00:12:00;;;;;;;10.25;8.27;;;;;;;21.23;60.57;101786.06;4979442;28;20038;-72
2021/07/03 00:14:25;;;;;;;7.63;6.65;;;;;;;21.23;60.62;101780.81;4995594;28;20104;-72
2021/07/03 00:16:51;;;;;;;8.10;7.18;;;;;;;21.22;60.70;101779.94;4995487;28;20042;-72
2021/07/03 00:19:16;;;;;;;8.13;7.25;;;;;;;21.19;60.92;101769.41;4980410;28;20038;-72
2021/07/03 00:21:42;;;;;;;7.13;6.28;;;;;;;21.23;60.45;101773.78;5016938;28;20436;-72
2021/07/03 00:24:07;;;;;;;8.38;7.38;;;;;;;21.22;60.72;101776.44;5016792;28;20479;-72
2021/07/03 00:26:32;;;;;;;8.23;6.75;;;;;;;21.23;60.72;101775.56;4999047;28;20037;-71
2021/07/03 00:28:58;;;;;;;7.57;6.30;;;;;;;21.22;60.67;101768.53;4998960;28;20030;-72
2021/07/03 00:31:23;;;;;;;8.82;6.53;;;;;;;21.23;60.35;101775.56;4998886;28;20048;-72
2021/07/03 00:33:49;;;;;;;6.65;5.90;;;;;;;21.20;60.42;101765.03;5016963;28;20061;-72
2021/07/03 00:36:14;;;;;;;7.78;6.38;;;;;;;21.21;60.63;101764.16;5016666;28;20038;-72
2021/07/03 00:38:40;;;;;;;9.15;7.18;;;;;;;21.18;60.49;101757.09;4998949;28;20506;-72
2021/07/03 00:41:05;;;;;;;8.10;6.45;;;;;;;21.22;60.36;101768.53;4982970;28;20029;-72
2021/07/03 00:43:31;;;;;;;8.55;6.95;;;;;;;21.20;60.79;101765.91;5016817;28;20041;-72
2021/07/03 00:45:56;;;;;;;8.57;7.40;;;;;;;21.18;60.73;101757.09;4968149;28;20036;-72
2021/07/03 00:48:21;;;;;;;8.18;7.35;;;;;;;21.21;60.46;101754.50;4982721;28;20034;-72
2021/07/03 00:50:47;;;;;;;8.65;6.93;;;;;;;21.21;60.50;101753.63;5016408;28;20117;-72
2021/07/03 00:53:15;;;;;;;9.73;8.05;;;;;;;21.21;60.71;101751.88;4998747;28;20037;-72
2021/07/03 00:55:41;;;;;;;6.80;5.82;;;;;;;21.22;60.49;101763.28;4998747;28;20049;-72
2021/07/03 00:58:06;;;;;;;9.65;8.05;;;;;;;21.20;60.34;101754.50;5015959;28;20042;-72
2021/07/03 01:00:32;;;;;;;8.35;7.13;;;;;;;21.22;60.39;101758.00;4982109;28;20030;-71
2021/07/03 01:02:57;;;;;;;9.23;6.90;;;;;;;21.19;60.58;101758.88;4998403;28;20029;-72
2021/07/03 01:05:23;;;;;;;8.25;6.97;;;;;;;21.22;60.56;101774.66;4982411;28;20034;-72
2021/07/03 01:07:48;;;;;;;8.95;7.18;;;;;;;21.22;60.49;101763.28;4998249;28;20034;-72
2021/07/03 01:10:25;;;;;;;7.75;6.03;;;;;;;21.19;60.80;101764.16;5015882;28;20026;-72
2021/07/03 01:12:51;;;;;;;8.07;6.60;;;;;;;21.18;60.86;101762.34;5015714;28;20490;-72
2021/07/03 01:15:17;;;;;;;7.65;6.78;;;;;;;21.19;60.68;101769.41;5015738;28;20117;-72
2021/07/03 01:17:43;;;;;;;8.02;6.30;;;;;;;21.22;60.53;101777.31;5015937;28;20037;-72
2021/07/03 01:20:10;;;;;;;7.50;5.72;;;;;;;21.21;60.42;101766.78;4998145;28;20415;-72
2021/07/03 01:22:36;;;;;;;8.00;6.93;;;;;;;21.21;60.53;101770.28;5015529;28;20034;-72
2021/07/03 01:25:03;;;;;;;8.45;6.15;;;;;;;21.20;60.50;101765.91;4998012;28;20045;-72
2021/07/03 01:27:29;;;;;;;8.40;6.63;;;;;;;21.21;60.82;101767.66;4998105;28;20084;-72
2021/07/03 01:29:54;;;;;;;7.25;6.50;;;;;;;21.20;60.55;101759.75;4997830;28;20026;-72
2021/07/03 01:32:22;;;;;;;6.75;6.13;;;;;;;21.22;60.76;101758.00;4981058;28;20037;-72
2021/07/03 01:34:47;;;;;;;7.15;6.22;;;;;;;21.21;60.52;101753.63;4981891;28;20488;-72
2021/07/03 01:37:14;;;;;;;6.85;6.15;;;;;;;21.22;60.45;101752.75;4997891;28;20034;-72
2021/07/03 01:39:40;;;;;;;8.48;6.55;;;;;;;21.21;60.42;101751.00;4997865;28;20026;-72
2021/07/03 01:42:07;;;;;;;7.32;6.07;;;;;;;21.20;60.78;101749.25;4981551;28;20041;-72
2021/07/03 01:44:33;;;;;;;9.18;6.95;;;;;;;21.18;60.58;101750.97;4997637;28;20092;-71
2021/07/03 01:47:00;;;;;;;7.45;6.30;;;;;;;21.20;60.72;101754.50;5015178;28;20037;-72
2021/07/03 01:49:28;;;;;;;7.75;6.35;;;;;;;21.20;60.79;101752.75;5014972;28;20057;-72
2021/07/03 01:51:55;;;;;;;6.93;5.60;;;;;;;21.19;60.76;101750.13;5015195;28;20476;-72
2021/07/03 01:54:21;;;;;;;7.00;5.97;;;;;;;21.19;60.69;101748.38;4997403;28;20050;-72
2021/07/03 01:56:57;;;;;;;7.05;6.25;;;;;;;21.17;60.62;101743.94;5015030;28;20022;-72
2021/07/03 01:59:23;;;;;;;8.57;6.80;;;;;;;21.19;60.95;101748.38;4970314;28;20045;-72
2021/07/03 02:01:48;;;;;;;6.20;5.28;;;;;;;21.19;60.65;101743.09;4999519;28;20033;-74
2021/07/03 02:04:13;;;;;;;7.13;5.68;;;;;;;21.19;60.62;101743.09;5015674;28;20037;-72
2021/07/03 02:06:39;;;;;;;7.07;5.97;;;;;;;21.16;60.43;101743.06;4998964;28;20037;-72
2021/07/03 02:09:04;;;;;;;9.50;5.93;;;;;;;21.19;60.60;101737.84;5016307;28;20032;-75
2021/07/03 02:11:30;;;;;;;8.50;6.50;;;;;;;21.19;60.51;101742.22;5015256;28;20053;-72
2021/07/03 02:13:55;;;;;;;6.90;5.50;;;;;;;21.17;60.73;101722.91;4997383;28;20038;-72
2021/07/03 02:16:21;;;;;;;6.78;6.07;;;;;;;21.16;60.84;101729.06;4997226;28;20153;-72
2021/07/03 02:18:46;;;;;;;7.60;6.13;;;;;;;21.17;60.56;101720.28;5014471;28;20484;-72
2021/07/03 02:21:11;;;;;;;6.35;5.32;;;;;;;21.19;60.72;101724.69;4997129;28;20369;-71
2021/07/03 02:23:37;;;;;;;8.23;6.40;;;;;;;21.17;60.62;101718.53;4980844;28;20026;-72
2021/07/03 02:26:02;;;;;;;7.50;6.70;;;;;;;21.18;60.71;101719.41;4997052;28;20033;-71
2021/07/03 02:28:27;;;;;;;8.20;6.93;;;;;;;21.16;60.55;101715.91;4996981;28;20156;-72
2021/07/03 02:30:53;;;;;;;9.43;6.00;;;;;;;21.19;60.84;101721.19;4980779;28;20365;-72
2021/07/03 02:33:18;;;;;;;7.22;5.50;;;;;;;21.18;60.74;101719.41;4996829;28;20030;-72
2021/07/03 02:35:44;;;;;;;6.80;5.95;;;;;;;21.15;60.75;101704.53;4980478;28;20037;-72
2021/07/03 02:38:09;;;;;;;5.78;5.18;;;;;;;21.18;60.78;101712.38;4996681;28;20034;-72
2021/07/03 02:40:35;;;;;;;8.50;7.15;;;;;;;21.15;60.88;101709.78;5014103;28;20030;-71
2021/07/03 02:43:00;;;;;;;6.93;6.22;;;;;;;21.17;60.63;101710.63;4996021;28;20059;-71
2021/07/03 02:45:26;;;;;;;7.03;6.05;;;;;;;21.17;60.82;101702.75;4996566;28;20041;-72
2021/07/03 02:47:51;;;;;;;6.15;5.55;;;;;;;21.17;60.56;101707.13;5014231;28;20080;-72
2021/07/03 02:50:19;;;;;;;8.63;6.53;;;;;;;21.15;60.77;101699.25;4996548;28;20041;-72
2021/07/03 02:52:44;;;;;;;7.88;5.90;;;;;;;21.18;60.82;101701.84;4996389;28;20032;-72
2021/07/03 02:55:11;;;;;;;6.30;5.40;;;;;;;21.18;60.49;101706.25;5013791;28;20054;-71
2021/07/03 02:57:37;;;;;;;6.13;5.20;;;;;;;21.17;60.88;101708.00;5013857;28;20040;-72
2021/07/03 03:00:11;;;;;;;7.60;5.82;;;;;;;21.17;60.76;101701.84;5014047;28;20068;-71
2021/07/03 03:02:37;;;;;;;6.43;5.57;;;;;;;21.18;61.01;101706.25;4996145;28;20025;-72
2021/07/03 03:05:08;;;;;;;7.30;5.30;;;;;;;21.17;61.00;101707.13;5013799;28;20025;-72
2021/07/03 03:07:35;;;;;;;6.57;5.88;;;;;;;21.16;60.55;101703.63;4979880;28;20034;-72
2021/07/03 03:10:01;;;;;;;6.72;6.00;;;;;;;21.17;60.70;101707.13;4995940;28;20022;-72
2021/07/03 03:12:26;;;;;;;6.00;5.40;;;;;;;21.16;60.87;101706.25;4996327;28;20038;-72
2021/07/03 03:14:52;;;;;;;5.97;5.03;;;;;;;21.19;60.97;101706.28;4996074;28;20036;-72
2021/07/03 03:17:17;;;;;;;7.13;5.90;;;;;;;21.17;60.50;101699.22;5013594;28;20113;-72
2021/07/03 03:19:42;;;;;;;6.07;5.10;;;;;;;21.16;60.75;101692.25;4963832;28;20029;-72
2021/07/03 03:22:08;;;;;;;6.47;5.78;;;;;;;21.16;60.76;101698.34;4996045;28;20030;-72
2021/07/03 03:24:33;;;;;;;6.65;6.03;;;;;;;21.18;60.65;101691.34;4996140;28;20065;-72
2021/07/03 03:26:59;;;;;;;7.97;5.80;;;;;;;21.18;60.66;101696.59;5013686;28;20030;-72
2021/07/03 03:29:24;;;;;;;7.35;6.47;;;;;;;21.16;60.79;101690.47;5013778;28;20425;-72
2021/07/03 03:31:49;;;;;;;9.75;5.78;;;;;;;21.17;60.36;101688.72;5014366;28;20065;-72
2021/07/03 03:34:15;;;;;;;5.72;4.68;;;;;;;21.18;60.83;101682.56;4979937;28;20026;-72
2021/07/03 03:36:40;;;;;;;6.82;5.72;;;;;;;21.17;60.72;101681.69;4996019;28;20034;-72
2021/07/03 03:39:06;;;;;;;7.65;5.32;;;;;;;21.17;60.50;101684.31;5013728;28;20120;-72
2021/07/03 03:41:31;;;;;;;6.80;5.80;;;;;;;21.16;60.43;101679.09;4979704;28;20030;-72
2021/07/03 03:43:57;;;;;;;6.28;5.65;;;;;;;21.16;60.50;101672.06;4995632;28;20040;-72
2021/07/03 03:46:23;;;;;;;6.25;5.47;;;;;;;21.17;60.63;101681.69;5013546;28;20042;-72
2021/07/03 03:48:49;;;;;;;5.45;4.88;;;;;;;21.18;60.62;101678.19;5013400;28;20096;-72
2021/07/03 03:51:14;;;;;;;7.72;5.78;;;;;;;21.18;60.60;101678.19;4995473;28;20476;-72
2021/07/03 03:53:40;;;;;;;7.55;5.35;;;;;;;21.18;60.19;101682.56;4995856;28;20444;-72
2021/07/03 03:56:05;;;;;;;5.95;5.10;;;;;;;21.16;60.80;101674.69;4999752;28;20091;-72
2021/07/03 03:58:30;;;;;;;6.80;5.57;;;;;;;21.19;60.42;101684.34;4999704;28;20391;-71
2021/07/03 04:00:56;;;;;;;7.18;5.45;;;;;;;21.16;60.60;101679.94;5017206;28;20384;-72
2021/07/03 04:03:21;;;;;;;6.38;4.85;;;;;;;21.18;60.49;101690.47;4983276;28;20034;-72
2021/07/03 04:05:47;;;;;;;5.82;5.03;;;;;;;21.19;60.62;101685.22;5016966;28;20061;-72
2021/07/03 04:08:12;;;;;;;7.20;5.38;;;;;;;21.20;60.37;101687.00;5017352;28;20128;-72
2021/07/03 04:10:38;;;;;;;5.32;4.78;;;;;;;21.15;60.54;101680.84;4999545;28;20037;-72
2021/07/03 04:13:03;;;;;;;6.27;5.03;;;;;;;21.17;60.62;101678.19;5017921;28;20022;-72
2021/07/03 04:15:29;;;;;;;5.13;4.63;;;;;;;21.19;60.54;101682.59;4983782;28;20547;-72
2021/07/03 04:17:54;;;;;;;6.13;5.28;;;;;;;21.18;60.54;101685.19;5017565;28;20068;-72
2021/07/03 04:20:20;;;;;;;5.75;4.70;;;;;;;21.20;60.39;101681.72;4983700;28;20022;-72
2021/07/03 04:22:45;;;;;;;7.45;5.15;;;;;;;21.18;60.85;101685.19;5017461;28;20472;-72
2021/07/03 04:25:12;;;;;;;6.22;5.10;;;;;;;21.20;60.57;101678.22;4999476;28;20045;-72
2021/07/03 04:27:38;;;;;;;6.30;5.38;;;;;;;21.20;60.45;101673.84;4999372;28;20030;-72
2021/07/03 04:30:06;;;;;;;6.75;4.82;;;;;;;21.18;60.46;101672.06;4999459;28;20038;-72
2021/07/03 04:32:31;;;;;;;5.63;4.60;;;;;;;21.21;60.49;101674.72;4999377;28;20037;-72
2021/07/03 04:34:57;;;;;;;5.75;5.00;;;;;;;21.21;60.47;101674.72;4999018;28;20033;-72
2021/07/03 04:37:22;;;;;;;6.43;5.45;;;;;;;21.22;60.73;101679.97;4983041;28;20491;-72
2021/07/03 04:39:47;;;;;;;6.68;4.65;;;;;;;21.20;60.38;101671.19;4983334;28;20108;-72
2021/07/03 04:42:13;;;;;;;5.63;4.55;;;;;;;21.23;60.62;101675.59;4999288;28;20065;-72
2021/07/03 04:44:38;;;;;;;6.30;5.13;;;;;;;21.23;60.37;101672.97;4999080;28;20037;-72
2021/07/03 04:47:03;;;;;;;5.05;4.43;;;;;;;21.24;60.35;101674.72;4983142;28;20045;-72
2021/07/03 04:49:32;;;;;;;5.63;4.85;;;;;;;21.22;60.31;101660.69;5016284;28;20455;-71
2021/07/03 04:51:57;;;;;;;5.90;4.53;;;;;;;21.26;60.38;101672.94;5016323;28;20423;-72
2021/07/03 04:54:23;;;;;;;5.20;4.43;;;;;;;21.25;60.57;101672.06;4998677;28;20054;-72
2021/07/03 04:56:48;;;;;;;5.50;4.82;;;;;;;21.27;60.46;101678.22;4982490;28;20045;-72
2021/07/03 04:59:13;;;;;;;5.75;4.88;;;;;;;21.27;60.61;101677.34;5016143;28;20140;-72
2021/07/03 05:01:39;;;;;;;6.20;4.72;;;;;;;21.29;60.50;101675.59;5016060;28;20038;-71
2021/07/03 05:04:04;;;;;;;5.65;4.68;;;;;;;21.28;60.22;101676.47;4982501;28;20029;-72
2021/07/03 05:06:29;;;;;;;6.00;5.25;;;;;;;21.26;60.18;101678.22;4997521;28;20176;-72
2021/07/03 05:08:55;;;;;;;6.32;5.32;;;;;;;21.27;60.41;101680.84;4982253;28;20022;-72
2021/07/03 05:11:20;;;;;;;6.38;5.07;;;;;;;21.27;59.99;101672.06;4998354;28;20517;-72
2021/07/03 05:13:45;;;;;;;14.93;11.02;;;;;;;21.09;59.32;101672.97;4981887;28;20460;-72
2021/07/03 05:16:11;;;;;;;15.32;11.43;;;;;;;20.98;59.39;101666.84;4998024;28;20128;-72
2021/07/03 05:18:36;;;;;;;14.93;11.13;;;;;;;20.87;59.79;101671.25;4998044;28;20109;-72
2021/07/03 05:21:02;;;;;;;14.57;11.88;;;;;;;20.79;59.77;101663.38;5015584;28;20096;-72
2021/07/03 05:23:27;;;;;;;16.20;12.52;;;;;;;20.76;59.88;101663.41;5015533;28;20054;-73
2021/07/03 05:25:55;;;;;;;17.00;12.95;;;;;;;20.82;59.56;101657.25;5015666;28;20068;-72
2021/07/03 05:28:20;;;;;;;19.75;13.65;;;;;;;20.84;59.46;101659.00;4998284;28;20113;-72
2021/07/03 05:30:48;;;;;;;18.77;14.52;;;;;;;20.85;59.32;101654.63;4997648;28;20030;-73
2021/07/03 05:33:14;;;;;;;18.17;13.98;;;;;;;20.85;59.47;101651.97;5015247;28;20033;-72
2021/07/03 05:35:39;;;;;;;17.23;15.20;;;;;;;20.84;59.53;101658.13;4997620;28;20117;-72
2021/07/03 05:38:05;;;;;;;20.25;15.60;;;;;;;20.84;59.54;101664.25;4981470;28;20053;-73
2021/07/03 05:40:30;;;;;;;20.92;16.08;;;;;;;20.81;59.80;101666.00;5015159;28;20412;-72
2021/07/03 05:42:55;;;;;;;19.50;15.43;;;;;;;20.82;59.85;101670.38;5015237;28;20038;-72
2021/07/03 05:45:21;;;;;;;22.70;17.02;;;;;;;20.83;59.69;101656.38;4997663;28;20048;-74
2021/07/03 05:47:51;;;;;;;20.20;17.05;;;;;;;20.81;59.60;101660.75;4997721;28;20034;-72
2021/07/03 05:50:28;;;;;;;21.60;17.25;;;;;;;20.83;59.68;101656.38;5015182;28;20379;-71
2021/07/03 05:52:54;;;;;;;20.73;17.10;;;;;;;20.84;59.70;101650.22;4981202;28;20025;-72
2021/07/03 05:55:21;;;;;;;25.02;19.25;;;;;;;20.88;59.66;101657.25;4980930;28;20060;-72
2021/07/03 05:57:46;;;;;;;19.70;17.25;;;;;;;20.98;59.39;101658.97;5014923;28;20033;-72
2021/07/03 06:00:14;;;;;;;21.30;18.38;;;;;;;21.08;59.52;101657.19;4997383;28;20048;-72
2021/07/03 06:02:39;;;;;;;19.80;16.73;;;;;;;21.16;59.20;101656.25;5014676;28;20056;-72
2021/07/03 06:05:06;;;;;;;22.80;17.63;;;;;;;21.23;59.40;101654.53;5014824;28;20050;-73
2021/07/03 06:07:31;;;;;;;25.33;18.95;;;;;;;21.20;59.22;101652.78;5014627;28;20455;-73
2021/07/03 06:09:57;;;;;;;23.02;18.60;;;;;;;21.21;59.26;101656.31;5014769;28;20109;-72
2021/07/03 06:12:22;;;;;;;22.27;17.77;;;;;;;21.15;59.18;101649.28;4997179;28;20511;-72
2021/07/03 06:14:47;;;;;;;23.20;18.13;;;;;;;21.09;59.42;101648.41;5014638;28;20411;-72
2021/07/03 06:17:13;;;;;;;24.58;19.40;;;;;;;21.18;59.11;101637.84;4996712;28;20037;-72
2021/07/03 06:19:43;;;;;;;24.20;18.52;;;;;;;21.25;58.93;101635.25;5014584;28;20101;-72
2021/07/03 06:22:12;;;;;;;25.53;19.07;;;;;;;21.30;58.77;101636.09;5014481;28;20041;-72
2021/07/03 06:24:38;;;;;;;29.15;22.02;;;;;;;20.99;59.44;101634.44;5014340;28;20189;-72
2021/07/03 06:27:03;;;;;;;30.05;23.48;;;;;;;20.83;59.55;101627.44;4996705;28;20033;-72
2021/07/03 06:29:29;;;;;;;28.88;21.90;;;;;;;21.07;59.20;101632.63;5014162;28;20036;-72
2021/07/03 06:31:55;;;;;;;32.83;24.90;;;;;;;21.21;58.47;101622.97;5014358;28;20033;-73
2021/07/03 06:34:20;;;;;;;24.27;19.10;;;;;;;21.34;58.28;101632.56;4996654;28;20025;-72
2021/07/03 06:36:46;;;;;;;28.50;22.20;;;;;;;21.35;58.34;101629.06;4980669;28;20040;-72
2021/07/03 06:39:11;;;;;;;27.23;21.73;;;;;;;21.49;58.14;101630.75;4980490;28;20044;-71
2021/07/03 06:41:36;;;;;;;30.50;20.05;;;;;;;21.60;58.13;101631.56;5014274;28;20447;-72
2021/07/03 06:44:02;;;;;;;27.60;18.35;;;;;;;21.76;57.69;101627.97;4980244;28;20033;-72
2021/07/03 06:46:28;;;;;;;24.00;18.60;;;;;;;21.87;57.59;101627.91;4996784;28;20042;-72
2021/07/03 06:48:54;;;;;;;;;;;;;;;21.79;57.94;101638.50;5014641;28;20068;-72
2021/07/03 06:51:19;;;;;;;20.55;16.38;;;;;;;21.77;57.98;101634.13;5014020;28;19917;-72
2021/07/03 06:53:44;;;;;;;15.88;14.20;;;;;;;21.86;58.00;101639.31;4979937;28;20088;-72
2021/07/03 06:56:10;;;;;;;18.80;14.05;;;;;;;21.85;58.08;101640.19;5014144;28;20025;-72
2021/07/03 06:58:35;;;;;;;15.80;12.25;;;;;;;21.97;57.74;101637.47;5014034;28;20495;-72
2021/07/03 07:01:00;;;;;;;17.13;13.50;;;;;;;22.04;57.60;101633.97;4980138;28;20488;-72
2021/07/03 07:03:26;;;;;;;16.20;11.95;;;;;;;22.12;57.36;101637.41;4964129;28;20041;-72
2021/07/03 07:05:51;;;;;;;15.70;12.38;;;;;;;22.19;57.28;101635.63;5014111;28;20029;-72
2021/07/03 07:08:16;;;;;;;13.65;11.48;;;;;;;22.25;57.22;101638.19;4996172;28;20455;-72
2021/07/03 07:10:42;;;;;;;15.75;11.50;;;;;;;22.33;57.04;101642.50;4996193;28;20426;-72
2021/07/03 07:13:08;;;;;;;12.85;10.63;;;;;;;22.36;56.98;101634.56;5014052;28;20040;-72
2021/07/03 07:15:34;;;;;;;13.52;10.95;;;;;;;22.34;57.03;101636.34;4996340;28;20044;-72
2021/07/03 07:18:00;;;;;;;14.10;10.75;;;;;;;22.36;56.89;101636.34;4979973;28;20034;-72
2021/07/03 07:20:26;;;;;;;12.32;9.77;;;;;;;22.40;56.99;101635.44;4996166;28;20025;-72
2021/07/03 07:22:51;;;;;;;15.18;10.75;;;;;;;22.46;56.92;101638.00;5013801;28;20034;-72
2021/07/03 07:25:17;;;;;;;11.40;9.25;;;;;;;22.50;56.84;101631.81;4996167;28;20570;-72
2021/07/03 07:27:42;;;;;;;11.88;10.35;;;;;;;22.55;56.77;101632.66;4995984;28;20030;-72
2021/07/03 07:30:08;;;;;;;11.45;8.68;;;;;;;22.57;56.74;101628.25;4998555;28;20164;-72
2021/07/03 07:32:33;;;;;;;11.95;9.32;;;;;;;22.59;56.76;101626.44;5017597;28;20038;-72
2021/07/03 07:34:59;;;;;;;10.15;8.93;;;;;;;22.64;56.67;101626.41;5000329;28;20042;-72
2021/07/03 07:37:26;;;;;;;11.57;9.02;;;;;;;22.70;56.45;101631.66;5017799;28;20026;-72
2021/07/03 07:39:52;;;;;;;10.48;9.07;;;;;;;22.69;56.44;101622.00;4999948;28;20022;-72
2021/07/03 07:42:17;;;;;;;11.55;8.85;;;;;;;22.73;56.54;101623.69;5017543;28;20369;-72
2021/07/03 07:44:42;;;;;;;12.90;8.88;;;;;;;22.73;56.44;101621.03;4999736;28;20045;-72
2021/07/03 07:47:08;;;;;;;10.60;7.70;;;;;;;22.77;56.50;101628.94;4983470;28;20036;-72
2021/07/03 07:49:33;;;;;;;9.50;8.20;;;;;;;22.77;56.53;101621.03;4999628;28;20448;-72
2021/07/03 07:51:59;;;;;;;9.80;8.35;;;;;;;22.77;56.56;101621.03;4983508;28;20034;-72
2021/07/03 07:54:24;;;;;;;9.50;8.50;;;;;;;22.78;56.12;101622.78;5017287;28;20050;-72
2021/07/03 07:56:49;;;;;;;10.55;7.95;;;;;;;22.83;56.49;101613.97;4999754;28;20369;-72
2021/07/03 07:59:15;;;;;;;11.07;9.82;;;;;;;22.82;56.42;101612.22;5017147;28;20034;-72
2021/07/03 08:01:40;;;;;;;10.18;8.73;;;;;;;22.85;56.55;101614.84;4999645;28;20063;-72
2021/07/03 08:04:06;;;;;;;8.98;7.95;;;;;;;22.83;56.49;101599.03;4999536;28;20080;-72
2021/07/03 08:06:31;;;;;;;8.52;7.63;;;;;;;22.89;56.17;101608.59;5017154;28;20388;-71
2021/07/03 08:08:56;;;;;;;10.40;8.35;;;;;;;22.87;56.41;101602.47;4999663;28;20083;-72
2021/07/03 08:11:22;;;;;;;10.60;9.48;;;;;;;22.81;56.66;101600.78;4999301;28;20169;-71
2021/07/03 08:13:48;;;;;;;8.38;7.47;;;;;;;22.69;57.03;101595.63;5016778;28;20034;-72
2021/07/03 08:16:13;;;;;;;20.27;8.85;;;;;;;22.56;57.44;101594.88;4982930;28;20116;-72
2021/07/03 08:18:39;;;;;;;9.55;8.25;;;;;;;22.48;57.79;101598.44;4999336;28;20057;-72
2021/07/03 08:21:04;;;;;;;8.50;7.70;;;;;;;22.39;57.84;101595.03;4999065;28;20026;-72
2021/07/03 08:23:29;;;;;;;9.05;8.13;;;;;;;22.34;58.07;101594.19;5016573;28;20029;-72
2021/07/03 08:25:55;;;;;;;9.50;8.50;;;;;;;22.34;58.22;101594.19;4999161;28;20034;-72
2021/07/03 08:28:20;;;;;;;9.77;8.23;;;;;;;22.31;58.21;101593.34;5016623;28;20037;-72
2021/07/03 08:30:46;;;;;;;9.38;7.28;;;;;;;22.25;58.44;101588.13;5016356;28;20038;-72
2021/07/03 08:33:14;;;;;;;9.13;8.23;;;;;;;22.26;58.43;101590.75;4982664;28;20042;-72
2021/07/03 08:35:40;;;;;;;10.38;7.22;;;;;;;22.25;58.39;101586.38;5016660;28;20029;-72
2021/07/03 08:38:05;;;;;;;9.00;7.43;;;;;;;22.22;58.57;101590.78;5016567;28;20380;-72
2021/07/03 08:40:31;;;;;;;9.10;8.20;;;;;;;22.19;58.55;101583.81;5016586;28;20026;-72
2021/07/03 08:42:57;;;;;;;9.13;7.97;;;;;;;22.20;58.44;101589.94;4983129;28;20044;-72
2021/07/03 08:45:22;;;;;;;9.23;7.93;;;;;;;22.20;58.53;101589.94;4998616;28;20061;-72
2021/07/03 08:47:48;;;;;;;9.70;7.30;;;;;;;22.17;58.62;101580.31;5016228;28;20042;-72
2021/07/03 08:50:17;;;;;;;10.15;8.10;;;;;;;22.17;58.58;101580.31;4998670;28;20034;-72
2021/07/03 08:52:42;;;;;;;7.70;6.90;;;;;;;22.16;58.54;101580.31;5016222;28;20476;-72
2021/07/03 08:55:15;;;;;;;10.90;8.70;;;;;;;22.15;58.60;101579.44;5016012;28;20057;-72
2021/07/03 08:57:48;;;;;;;9.90;7.82;;;;;;;22.13;58.60;101569.78;5016015;28;20053;-72
2021/07/03 09:00:14;;;;;;;8.57;7.65;;;;;;;22.12;58.75;101568.03;5016069;28;20033;-72
2021/07/03 09:02:44;;;;;;;10.23;8.43;;;;;;;22.11;58.71;101577.72;4998458;28;20116;-72
2021/07/03 09:05:22;;;;;;;8.85;7.57;;;;;;;22.08;58.73;101575.09;5016019;28;20038;-72
2021/07/03 09:07:48;;;;;;;9.27;7.72;;;;;;;22.11;58.60;101569.81;4998275;28;20022;-72
2021/07/03 09:10:22;;;;;;;7.75;6.95;;;;;;;22.11;58.70;101580.34;4998192;28;20057;-72
2021/07/03 09:12:50;;;;;;;7.70;7.00;;;;;;;22.09;58.71;101572.44;4998193;28;20026;-72
2021/07/03 09:15:18;;;;;;;8.57;7.72;;;;;;;22.09;58.63;101571.56;4998149;28;20033;-72
2021/07/03 09:17:54;;;;;;;9.07;6.97;;;;;;;22.08;58.78;101572.47;4998070;28;20034;-72
2021/07/03 09:20:25;;;;;;;8.43;7.70;;;;;;;22.06;58.47;101564.59;5015646;28;20053;-72
2021/07/03 09:22:51;;;;;;;7.88;7.07;;;;;;;22.04;58.75;101565.50;4997995;28;20029;-72
2021/07/03 09:25:21;;;;;;;8.48;7.68;;;;;;;22.03;58.89;101566.38;5015784;28;20034;-71
2021/07/03 09:27:47;;;;;;;7.95;7.18;;;;;;;22.05;58.73;101572.50;4981994;28;20360;-72
2021/07/03 09:30:16;;;;;;;7.88;6.53;;;;;;;22.03;58.81;101569.88;4981568;28;20072;-72
2021/07/03 09:32:49;;;;;;;9.13;8.20;;;;;;;22.03;58.91;101572.50;5015716;28;20118;-72
2021/07/03 09:35:14;;;;;;;8.00;7.20;;;;;;;22.01;58.68;101571.66;5016594;28;20048;-72
2021/07/03 09:37:40;;;;;;;9.30;8.40;;;;;;;22.01;58.84;101579.56;4998481;28;20029;-72
2021/07/03 09:40:07;;;;;;;8.35;7.20;;;;;;;22.00;58.75;101571.66;4998113;28;20026;-72
2021/07/03 09:42:37;;;;;;;8.23;7.30;;;;;;;21.98;58.92;101568.13;4981786;28;20121;-72
2021/07/03 09:45:04;;;;;;;7.95;7.10;;;;;;;21.99;58.89;101573.41;4997776;28;20036;-72
2021/07/03 09:47:30;;;;;;;7.47;6.60;;;;;;;22.00;58.97;101569.91;4997532;28;20030;-73
2021/07/03 09:50:12;;;;;;;8.63;7.72;;;;;;;21.97;58.92;101563.75;4997686;28;20390;-72
2021/07/03 09:52:38;;;;;;;10.23;7.55;;;;;;;21.97;58.84;101561.09;5014696;28;20357;-72
2021/07/03 09:55:08;;;;;;;8.27;6.90;;;;;;;22.00;58.97;101569.91;5014858;28;20052;-72
2021/07/03 09:57:36;;;;;;;8.55;7.75;;;;;;;21.97;58.99;101561.97;5015307;28;20041;-72
2021/07/03 10:00:05;;;;;;;7.97;7.18;;;;;;;21.99;58.59;101557.63;4997235;28;20049;-72
2021/07/03 10:02:32;;;;;;;7.40;6.70;;;;;;;21.99;58.91;101569.91;5015141;28;20538;-72
2021/07/03 10:04:58;;;;;;;8.02;7.18;;;;;;;21.97;58.72;101563.75;5014951;28;20122;-72
2021/07/03 10:07:34;;;;;;;8.00;7.20;;;;;;;21.94;58.88;101558.53;4981186;28;20488;-72
2021/07/03 10:10:14;;;;;;;8.75;7.85;;;;;;;21.95;59.01;101560.25;5014575;28;20030;-72
2021/07/03 10:12:43;;;;;;;7.88;7.15;;;;;;;21.93;58.86;101552.38;5014570;28;20030;-72
2021/07/03 10:15:09;;;;;;;8.30;7.43;;;;;;;21.95;59.06;101560.25;5014576;28;20040;-72
2021/07/03 10:17:36;;;;;;;8.85;6.93;;;;;;;21.96;58.99;101559.34;5014708;28;20538;-72
2021/07/03 10:20:05;;;;;;;8.05;6.80;;;;;;;21.95;58.98;101557.59;5014569;28;20037;-72
2021/07/03 10:22:32;;;;;;;7.18;6.47;;;;;;;21.93;59.03;101564.66;5014720;28;20022;-72
2021/07/03 10:25:10;;;;;;;7.72;7.03;;;;;;;21.94;59.01;101561.16;5014623;28;20113;-72
2021/07/03 10:27:36;;;;;;;7.88;7.07;;;;;;;21.93;59.04;101555.00;5014478;28;20193;-72
2021/07/03 10:30:05;;;;;;;6.57;5.97;;;;;;;21.92;58.88;101547.13;5014303;28;20606;-72
2021/07/03 10:32:32;;;;;;;7.40;6.65;;;;;;;21.94;59.06;101556.72;4996724;28;20117;-72
2021/07/03 10:35:12;;;;;;;7.53;6.82;;;;;;;21.96;58.98;101552.34;5014370;28;20034;-74
2021/07/03 10:37:38;;;;;;;6.55;5.95;;;;;;;21.95;58.97;101547.06;4996669;28;20053;-74
2021/07/03 10:40:29;;;;;;;7.90;7.20;;;;;;;21.99;58.84;101544.44;5014245;28;20041;-74
2021/07/03 10:43:07;;;;;;;7.97;6.90;;;;;;;21.98;58.88;101540.03;4996588;28;20026;-74
2021/07/03 10:45:47;;;;;;;9.10;7.05;;;;;;;21.98;58.91;101539.16;5014212;28;20495;-74
2021/07/03 10:48:18;;;;;;;7.95;7.18;;;;;;;21.97;58.94;101543.53;4996515;28;20045;-74
2021/07/03 10:50:43;;;;;;;7.82;7.03;;;;;;;21.98;58.97;101536.53;4996465;28;20030;-74
2021/07/03 10:53:19;;;;;;;8.65;7.45;;;;;;;21.99;58.63;101538.31;4980323;28;20392;-74
2021/07/03 10:55:44;;;;;;;8.48;7.68;;;;;;;21.99;58.77;101533.03;4996471;28;20060;-74
2021/07/03 10:58:19;;;;;;;6.90;6.25;;;;;;;21.98;58.80;101537.41;5014014;28;20022;-74
2021/07/03 11:00:48;;;;;;;7.53;6.82;;;;;;;21.99;59.13;101528.66;5014022;28;20156;-74
2021/07/03 11:03:15;;;;;;;7.75;6.55;;;;;;;21.98;58.69;101524.22;5013531;28;20057;-74
2021/07/03 11:05:41;;;;;;;6.68;6.07;;;;;;;21.97;58.71;101518.97;5013632;28;20036;-74
2021/07/03 11:08:11;;;;;;;7.13;6.40;;;;;;;21.98;58.83;101518.97;4996519;28;20026;-74
2021/07/03 11:10:37;;;;;;;8.07;7.20;;;;;;;21.97;58.89;101514.56;4980167;28;20128;-74
2021/07/03 11:13:03;;;;;;;7.28;6.57;;;;;;;21.96;58.83;101502.28;4980030;28;20050;-74
2021/07/03 11:15:29;;;;;;;7.55;6.70;;;;;;;21.97;58.79;101497.91;5013856;28;20080;-73
2021/07/03 11:18:03;;;;;;;7.90;7.18;;;;;;;21.97;58.86;101496.13;4996144;28;20561;-74
2021/07/03 11:20:31;;;;;;;7.82;7.00;;;;;;;21.99;58.99;101498.81;5014038;28;20546;-73